Terminal Aerodrome Forecast
Issued by NWS

Home | Current Version | Previous Version | Text Only | Print | Product List | Glossary On
Versions: 1 2 3 4 5 6 7 8 9 10 11 12 13 14 15 16 17 18 19 20 21 22 23 24 25
000
FTUS44 KLIX 061121
TAFHUM
TAF
KHUM 061121Z 0612/0712 00000KT P6SM SKC
     FM061700 16007KT P6SM VCTS SCT030CB BKN150
     FM070200 18004KT P6SM BKN120
      TEMPO 0710/0712 2SM BR BKN005=

USA.gov is the U.S. government's official web portal to all federal, state and local government web resources and services.